M I D A S
Marine Information and Data Acquisition System
Tripno 441 of the Zeeleeuw from 2003-02-26 07:37:27 to 2003-02-26 17:27:41
Back to CruiseResearch ActivitiesStationsMapUnderway DataData graphs

EquipmentUnitsComment
TimeDGPSUTC
LatitudeDGPSDM.mWGS84
LongitudeDGPSDM.mWGS84
HeadingGyrodeg 
SOGDGPSknotsSpeed over ground
COGDGPSdegCourse over ground
DepthEcho soundermeters200 kHz
Missing or incorrect values are displayed as -999
Navigation data collected by the RV Zeeleeuw from 2003-02-26 07:37:27 to 2003-02-26 17:27:41
                                                                                    Next 1000 lines
Time Latitude Longitude Heading SOG COG Depth
2003-02-26 07:37:33 51°13.595 2°56.103 121.5 0.1 188 8.5
2003-02-26 07:37:38 51°13.595 2°56.103 120.4 0.1 191.8 8.5
2003-02-26 07:37:43 51°13.595 2°56.103 119.3 0.1 186.9 8.5
2003-02-26 07:37:48 51°13.595 2°56.103 118.5 0.1 190.2 8.5
2003-02-26 07:37:53 51°13.595 2°56.103 117.5 0.1 191.5 8.5
2003-02-26 07:37:58 51°13.594 2°56.104 116.7 0.1 183.8 8.5
2003-02-26 07:38:03 51°13.594 2°56.103 115.7 0.1 185.1 8.5
2003-02-26 07:38:08 51°13.594 2°56.103 114.8 0.1 185 8.5
2003-02-26 07:38:13 51°13.594 2°56.103 114.2 0.1 210 8.4
2003-02-26 07:38:18 51°13.594 2°56.103 113.9 0.1 278.3 8.4
2003-02-26 07:38:23 51°13.594 2°56.102 113.7 0.4 290.8 8.4
2003-02-26 07:38:28 51°13.595 2°56.1 113.7 0.8 291.6 8.3
2003-02-26 07:38:33 51°13.596 2°56.097 113.8 1 292 8.3
2003-02-26 07:38:38 51°13.596 2°56.094 114.5 1.5 292.4 7.5
2003-02-26 07:38:44 51°13.598 2°56.088 115.1 1.8 293.4 -999
2003-02-26 07:38:49 51°13.599 2°56.083 116.2 2.2 293.9 -999
2003-02-26 07:38:54 51°13.601 2°56.078 116.7 2.7 295.4 -999
2003-02-26 07:38:59 51°13.603 2°56.072 116.8 2.9 295.9 -999
2003-02-26 07:39:04 51°13.605 2°56.065 116.8 3.1 296.4 -999
2003-02-26 07:39:09 51°13.607 2°56.058 116.4 3.4 295.8 -999
2003-02-26 07:39:14 51°13.609 2°56.051 115.8 3.6 295.3 -999
2003-02-26 07:39:19 51°13.611 2°56.042 115.3 3.9 293.8 -999
2003-02-26 07:39:24 51°13.614 2°56.034 114.6 4.1 293.1 -999
2003-02-26 07:39:29 51°13.616 2°56.025 114 4.2 292.2 -999
2003-02-26 07:39:33 51°13.617 2°56.019 113.4 4.1 290.7 -999
2003-02-26 07:39:39 51°13.619 2°56.01 113 3.9 290.2 -999
2003-02-26 07:39:44 51°13.621 2°56.003 113 3.5 290 5.1
2003-02-26 07:39:48 51°13.622 2°55.998 113.2 3.1 289.6 11.2
2003-02-26 07:39:53 51°13.623 2°55.993 113.2 2.6 289.1 11.2
2003-02-26 07:39:57 51°13.624 2°55.99 113.2 2 289.2 11.2
2003-02-26 07:40:04 51°13.624 2°55.987 113.8 1.9 289.1 11.2
2003-02-26 07:40:08 51°13.624 2°55.986 114.9 0.9 289.9 11.2
2003-02-26 07:40:13 51°13.625 2°55.984 115.7 0.8 287.6 11.2
2003-02-26 07:40:18 51°13.626 2°55.982 116.3 1 290.4 11.2
2003-02-26 07:40:23 51°13.627 2°55.978 117.1 1.5 291.5 11.2
2003-02-26 07:40:28 51°13.628 2°55.973 117.8 2.1 292.2 11.2
2003-02-26 07:40:33 51°13.629 2°55.968 119 2.3 293.5 -999
2003-02-26 07:40:39 51°13.632 2°55.961 119.7 2.8 294.9 -999
2003-02-26 07:40:44 51°13.634 2°55.954 119.9 3.1 295.7 -999
2003-02-26 07:40:49 51°13.636 2°55.946 120.1 3.5 295.8 -999
2003-02-26 07:40:54 51°13.638 2°55.939 120.7 3.7 296.2 -999
2003-02-26 07:40:59 51°13.641 2°55.93 121.5 4 297 -999
2003-02-26 07:41:04 51°13.644 2°55.922 121.9 4.1 297.4 -999
2003-02-26 07:41:09 51°13.647 2°55.913 122.4 4.4 298.7 -999
2003-02-26 07:41:14 51°13.65 2°55.904 122.6 4.5 298.9 -999
2003-02-26 07:41:19 51°13.653 2°55.895 122.7 4.6 299.9 -999
2003-02-26 07:41:24 51°13.657 2°55.886 122.7 4.7 300 -999
2003-02-26 07:41:29 51°13.66 2°55.877 122.7 4.8 300.5 -999
2003-02-26 07:41:34 51°13.664 2°55.868 122.6 4.9 300.6 -999
2003-02-26 07:41:39 51°13.667 2°55.859 122.3 4.8 300.5 -999
2003-02-26 07:41:44 51°13.67 2°55.851 121.8 4.7 300.3 5
2003-02-26 07:41:48 51°13.672 2°55.844 121.1 4.6 300 -999
2003-02-26 07:41:54 51°13.676 2°55.833 120.3 4.5 299.3 -999
2003-02-26 07:41:59 51°13.679 2°55.825 119.2 4.4 298.6 -999
2003-02-26 07:42:04 51°13.682 2°55.817 118.2 4.3 298 -999
2003-02-26 07:42:09 51°13.684 2°55.809 117.3 4.1 297 4.8
2003-02-26 07:42:13 51°13.686 2°55.803 116.1 4 296.2 4.7
2003-02-26 07:42:19 51°13.689 2°55.794 114.8 3.8 295.2 12.6
2003-02-26 07:42:24 51°13.69 2°55.786 113.8 3.7 294 12.8
2003-02-26 07:42:28 51°13.692 2°55.781 112.5 3.5 292.8 12.6
2003-02-26 07:42:32 51°13.693 2°55.775 110.8 3.4 291.7 10.9
2003-02-26 07:42:37 51°13.695 2°55.769 108.6 3.1 290.2 12.5
2003-02-26 07:42:43 51°13.696 2°55.763 105.7 2.7 288.7 11.8
2003-02-26 07:42:48 51°13.696 2°55.76 102.3 2.2 287.5 12.4
2003-02-26 07:42:53 51°13.697 2°55.757 98.3 1.6 286.3 12.5
2003-02-26 07:42:58 51°13.697 2°55.755 93.5 0.9 286 12.3
2003-02-26 07:43:04 51°13.697 2°55.754 88.6 0.9 286.4 12.4
2003-02-26 07:43:08 51°13.697 2°55.754 84.1 0.4 298.7 12.4
2003-02-26 07:43:13 51°13.698 2°55.754 79.3 0.2 335.3 12.6
2003-02-26 07:43:19 51°13.698 2°55.754 74.7 0.2 352.7 12.7
2003-02-26 07:43:24 51°13.698 2°55.755 70.3 0.3 37.2 12
2003-02-26 07:43:28 51°13.699 2°55.755 66.5 0.3 35.9 12.3
2003-02-26 07:43:33 51°13.699 2°55.755 63.7 0.3 35.8 12.7
2003-02-26 07:43:38 51°13.699 2°55.755 60.9 0.2 28.7 11.3
2003-02-26 07:43:44 51°13.699 2°55.754 58.3 0.1 2.8 12.6
2003-02-26 07:43:48 51°13.699 2°55.753 56.1 0.1 290.2 12.5
2003-02-26 07:43:53 51°13.698 2°55.752 54.6 0.4 250.5 12.6
2003-02-26 07:43:59 51°13.698 2°55.751 52.7 0.5 244.1 11.3
2003-02-26 07:44:03 51°13.698 2°55.75 51.3 0.6 238 12.6
2003-02-26 07:44:09 51°13.697 2°55.749 50 0.8 235 12.6
2003-02-26 07:44:13 51°13.696 2°55.747 48.9 0.9 232 12.6
2003-02-26 07:44:17 51°13.695 2°55.746 47.9 1.1 230.4 11.9
2003-02-26 07:44:23 51°13.694 2°55.744 46.9 1.1 229 12.8
2003-02-26 07:44:28 51°13.693 2°55.742 46.1 1.1 227.8 6.8
2003-02-26 07:44:33 51°13.692 2°55.74 45 1.1 227.8 6.2
2003-02-26 07:44:38 51°13.691 2°55.739 43.7 0.9 226.7 7
2003-02-26 07:44:43 51°13.691 2°55.738 41.9 0.7 226 6.6
2003-02-26 07:44:49 51°13.691 2°55.738 39.4 0.7 226 -999
2003-02-26 07:44:53 51°13.691 2°55.737 36.2 0.2 234.9 7
2003-02-26 07:44:58 51°13.691 2°55.737 33 0.1 262.8 12.9
2003-02-26 07:45:04 51°13.691 2°55.737 29.8 0.1 346.8 9.7
2003-02-26 07:45:08 51°13.691 2°55.737 26.5 0.2 1.9 13
2003-02-26 07:45:13 51°13.692 2°55.737 23.7 0.3 4.7 12.7
2003-02-26 07:45:18 51°13.692 2°55.737 19.5 0.4 4 12.5
2003-02-26 07:45:21 51°13.693 2°55.737 16.2 0.5 3.7 12.7
2003-02-26 07:45:29 51°13.694 2°55.737 12.8 0.6 359.8 12.5
2003-02-26 07:45:33 51°13.695 2°55.738 8.8 0.7 0.2 12.7
2003-02-26 07:45:37 51°13.696 2°55.737 4.7 0.9 356.5 12.7
2003-02-26 07:45:44 51°13.699 2°55.737 0.8 1.1 354.9 12.4
2003-02-26 07:45:48 51°13.701 2°55.736 354.6 1.4 348.8 4.8
2003-02-26 07:45:53 51°13.704 2°55.735 349.8 1.7 344.7 4.8
2003-02-26 07:45:58 51°13.706 2°55.733 346.2 2 341.9 4.8
2003-02-26 07:46:03 51°13.71 2°55.731 343.9 2.2 338.9 4.8
2003-02-26 07:46:09 51°13.713 2°55.729 341.8 2.4 337.9 4.7
2003-02-26 07:46:13 51°13.716 2°55.727 340.4 2.7 335.8 4.7
2003-02-26 07:46:19 51°13.721 2°55.723 339.6 2.8 335.4 4.9
2003-02-26 07:46:23 51°13.724 2°55.721 338.7 3.1 334.2 4.9
2003-02-26 07:46:28 51°13.728 2°55.717 338.1 3.3 333.9 4.8
2003-02-26 07:46:33 51°13.733 2°55.713 337.7 3.5 333.4 5.4
2003-02-26 07:46:38 51°13.738 2°55.709 337.5 3.7 333.3 4.7
2003-02-26 07:46:43 51°13.744 2°55.705 337.3 4.1 333.1 12.1
2003-02-26 07:46:49 51°13.751 2°55.699 337 4.5 333.2 12.1
2003-02-26 07:46:53 51°13.756 2°55.695 336.8 4.5 333.2 12.1
2003-02-26 07:46:58 51°13.762 2°55.689 336.8 5 332.5 12.2
2003-02-26 07:47:03 51°13.77 2°55.683 336.7 5.5 332.2 12.4
2003-02-26 07:47:09 51°13.778 2°55.676 336.7 5.8 332.3 12.4
2003-02-26 07:47:13 51°13.785 2°55.671 337 6 332.5 12.3
2003-02-26 07:47:18 51°13.793 2°55.664 337.5 6.3 333.3 12.3
2003-02-26 07:47:23 51°13.801 2°55.658 337.9 6.5 333.4 12.3
2003-02-26 07:47:28 51°13.809 2°55.651 338.1 6.5 333.5 12.3
2003-02-26 07:47:33 51°13.818 2°55.644 338.1 6.7 333.6 12.3
2003-02-26 07:47:37 51°13.825 2°55.638 338.4 7 333.5 12.2
2003-02-26 07:47:44 51°13.838 2°55.628 338.4 7.2 333.8 12.2
2003-02-26 07:47:48 51°13.845 2°55.623 338.6 7.3 333.7 12.2
2003-02-26 07:47:53 51°13.855 2°55.616 339.4 7.4 334.4 12
2003-02-26 07:47:57 51°13.862 2°55.61 339.8 7.5 334.8 12
2003-02-26 07:48:03 51°13.874 2°55.601 339.5 7.5 335.2 12
2003-02-26 07:48:08 51°13.883 2°55.594 339.6 7.6 335.1 12
2003-02-26 07:48:13 51°13.893 2°55.587 340.1 7.7 335.7 12
2003-02-26 07:48:18 51°13.903 2°55.58 340.4 7.8 336.2 12.1
2003-02-26 07:48:23 51°13.914 2°55.573 340.2 7.8 336.6 12.1
2003-02-26 07:48:28 51°13.924 2°55.566 340.2 7.8 336.4 12.1
2003-02-26 07:48:33 51°13.934 2°55.559 340.3 7.8 336.4 12
2003-02-26 07:48:38 51°13.944 2°55.551 339.6 7.9 335.8 12
2003-02-26 07:48:43 51°13.954 2°55.544 339.5 7.9 335.3 12.1
2003-02-26 07:48:49 51°13.965 2°55.536 339.5 7.8 335.1 12
2003-02-26 07:48:53 51°13.973 2°55.53 339.5 7.8 334.9 12
2003-02-26 07:48:57 51°13.981 2°55.525 339.4 7.8 334.7 12
2003-02-26 07:49:04 51°13.994 2°55.515 339.4 7.8 334.7 12
2003-02-26 07:49:08 51°14.002 2°55.509 339.7 7.8 334.6 12
2003-02-26 07:49:13 51°14.012 2°55.502 339.8 7.8 335.1 12
2003-02-26 07:49:18 51°14.021 2°55.494 339.9 7.8 334.9 12
2003-02-26 07:49:23 51°14.031 2°55.487 340.4 7.8 335.3 12
2003-02-26 07:49:28 51°14.041 2°55.48 340.4 7.8 335.5 12
2003-02-26 07:49:33 51°14.051 2°55.473 340.3 7.8 335.3 11.9
2003-02-26 07:49:37 51°14.059 2°55.467 340.2 7.8 335.2 10.2
2003-02-26 07:49:43 51°14.071 2°55.458 339.8 7.8 335.2 11.7
2003-02-26 07:49:48 51°14.081 2°55.451 339.6 7.9 335 11.8
2003-02-26 07:49:53 51°14.09 2°55.444 339.6 7.9 334.9 12.1
2003-02-26 07:49:58 51°14.1 2°55.436 339.6 7.9 334.9 12
2003-02-26 07:50:03 51°14.11 2°55.429 339.6 7.9 334.8 10.9
2003-02-26 07:50:08 51°14.12 2°55.422 339.5 7.9 334.6 12
2003-02-26 07:50:13 51°14.13 2°55.414 339.1 7.9 334.3 12.1
2003-02-26 07:50:18 51°14.139 2°55.406 338.7 7.9 333.6 12.1
2003-02-26 07:50:23 51°14.149 2°55.398 338 7.9 333.1 12.1
2003-02-26 07:50:29 51°14.161 2°55.388 336.5 7.9 332.3 12.1
2003-02-26 07:50:33 51°14.168 2°55.381 335.5 7.9 331.1 12.1
2003-02-26 07:50:37 51°14.176 2°55.374 334.8 7.9 330.3 12.1
2003-02-26 07:50:44 51°14.189 2°55.361 333.8 7.9 329.3 12.1
2003-02-26 07:50:48 51°14.196 2°55.353 332 7.9 327.8 12.1
2003-02-26 07:50:53 51°14.205 2°55.343 330.8 7.9 327.1 12.3
2003-02-26 07:50:58 51°14.214 2°55.333 329 7.9 325.3 12.1
2003-02-26 07:51:03 51°14.223 2°55.322 327.7 7.9 323.1 12.1
2003-02-26 07:51:08 51°14.231 2°55.311 325.7 7.9 321.5 12.1
2003-02-26 07:51:13 51°14.239 2°55.3 324.3 7.9 320.5 12
2003-02-26 07:51:19 51°14.249 2°55.286 322.6 7.9 319.3 12.2
2003-02-26 07:51:24 51°14.257 2°55.273 320.8 8 316.6 12.2
2003-02-26 07:51:28 51°14.263 2°55.263 318.6 8 315.3 12.2
2003-02-26 07:51:33 51°14.27 2°55.25 317.3 8 313.5 12.2
2003-02-26 07:51:39 51°14.279 2°55.234 316.1 8 313.5 12.3
2003-02-26 07:51:42 51°14.284 2°55.226 315.1 8 311 12.3
2003-02-26 07:51:48 51°14.292 2°55.21 314.1 8 310 12.3
2003-02-26 07:51:53 51°14.299 2°55.196 313.1 8 309.5 12.3
2003-02-26 07:51:58 51°14.306 2°55.182 312.4 8 309 12.3
2003-02-26 07:52:03 51°14.312 2°55.169 312 8 308.1 12.3
2003-02-26 07:52:08 51°14.319 2°55.155 311.1 8 307.2 12.3
2003-02-26 07:52:13 51°14.325 2°55.14 310.2 8 306.4 12.4
2003-02-26 07:52:17 51°14.33 2°55.129 309.1 8 304.9 12.4
2003-02-26 07:52:23 51°14.338 2°55.111 308.4 8 304.3 12.1
2003-02-26 07:52:29 51°14.345 2°55.094 308 8 303.7 12.4
2003-02-26 07:52:33 51°14.35 2°55.082 308.2 8.1 303.8 12.7
2003-02-26 07:52:37 51°14.356 2°55.069 309.1 8.4 304.4 12.8
2003-02-26 07:52:44 51°14.367 2°55.047 311.1 8.8 306.4 12.8
2003-02-26 07:52:48 51°14.374 2°55.034 313.9 9.3 309.9 12.7
2003-02-26 07:52:53 51°14.384 2°55.019 317.4 9.5 311.6 12.7
2003-02-26 07:52:58 51°14.395 2°55.006 322.1 9.9 317.4 12.7
2003-02-26 07:53:03 51°14.407 2°54.993 325.4 10.3 324.5 12.6
2003-02-26 07:53:08 51°14.42 2°54.982 329 10.5 328.8 12.3
2003-02-26 07:53:13 51°14.434 2°54.971 332.1 10.7 331 12.3
2003-02-26 07:53:19 51°14.451 2°54.959 334.9 10.9 333.4 12.2
2003-02-26 07:53:23 51°14.462 2°54.952 336.6 11.1 336.9 12.2
2003-02-26 07:53:28 51°14.477 2°54.942 336.2 11.2 337.3 12.2
2003-02-26 07:53:33 51°14.491 2°54.932 335.7 11.2 336.9 -999
2003-02-26 07:53:38 51°14.505 2°54.921 334.8 11.3 336 12
2003-02-26 07:53:43 51°14.52 2°54.911 335.1 11.4 335.7 12
2003-02-26 07:53:48 51°14.535 2°54.901 335.8 11.4 335.8 11.9
2003-02-26 07:53:53 51°14.55 2°54.891 336.5 11.5 336.1 12.1
2003-02-26 07:53:57 51°14.561 2°54.884 338.1 11.6 337.6 11.9
2003-02-26 07:54:03 51°14.58 2°54.873 339.6 11.6 339.2 11.8
2003-02-26 07:54:08 51°14.595 2°54.865 340.3 11.7 340.5 11.9
2003-02-26 07:54:13 51°14.61 2°54.857 340.6 11.7 341.1 11.8
2003-02-26 07:54:18 51°14.625 2°54.848 340.7 11.7 341.3 11.7
2003-02-26 07:54:23 51°14.641 2°54.84 340.3 11.7 341.1 11.7
2003-02-26 07:54:28 51°14.656 2°54.831 339.5 11.7 340.4 11.6
2003-02-26 07:54:33 51°14.672 2°54.821 338.6 11.7 340 11.7
2003-02-26 07:54:38 51°14.687 2°54.812 337.4 11.7 338.9 11.7
2003-02-26 07:54:43 51°14.701 2°54.801 336 11.6 337.2 11.6
2003-02-26 07:54:48 51°14.716 2°54.791 334.6 11.6 335.9 11.6
2003-02-26 07:54:53 51°14.73 2°54.779 333.1 11.6 335 11.5
2003-02-26 07:54:58 51°14.745 2°54.767 331.9 11.6 333.7 11.5
2003-02-26 07:55:03 51°14.759 2°54.755 331.1 11.6 332.3 11.5
2003-02-26 07:55:08 51°14.773 2°54.743 330.9 11.6 331.9 11.5
2003-02-26 07:55:13 51°14.787 2°54.731 330.9 11.6 331.8 11.5
2003-02-26 07:55:19 51°14.804 2°54.717 331.2 11.6 331.8 11.4
2003-02-26 07:55:23 51°14.815 2°54.708 331.8 11.6 332.6 11.5
2003-02-26 07:55:28 51°14.83 2°54.696 332.4 11.7 333.1 11.6
2003-02-26 07:55:33 51°14.844 2°54.685 333.1 11.7 333.5 11.2
2003-02-26 07:55:38 51°14.859 2°54.674 334.1 11.7 334.5 11.6
2003-02-26 07:55:43 51°14.874 2°54.664 334.5 11.7 335.1 11.6
2003-02-26 07:55:48 51°14.888 2°54.652 333.1 11.7 334.5 11.5
2003-02-26 07:55:54 51°14.905 2°54.637 330.9 11.7 333.5 11.6
2003-02-26 07:55:59 51°14.919 2°54.625 330.2 11.6 331.4 11.4
2003-02-26 07:56:03 51°14.931 2°54.616 331.5 11.6 332.2 11.3
2003-02-26 07:56:08 51°14.945 2°54.605 333.7 11.6 333.7 11.3
2003-02-26 07:56:13 51°14.96 2°54.595 335.3 11.7 335.2 11.2
2003-02-26 07:56:19 51°14.978 2°54.583 336.5 11.7 335.2 11.1
2003-02-26 07:56:22 51°14.987 2°54.577 336.7 11.8 337.3 10.9
2003-02-26 07:56:28 51°15.005 2°54.565 336.7 11.7 337.3 10.8
2003-02-26 07:56:33 51°15.02 2°54.554 335.9 11.7 336.8 10.6
2003-02-26 07:56:37 51°15.032 2°54.546 334.9 11.7 336 10.5
2003-02-26 07:56:43 51°15.049 2°54.533 333.6 11.7 334.9 10.6
2003-02-26 07:56:49 51°15.066 2°54.518 332.2 11.7 333.4 10.6
2003-02-26 07:56:53 51°15.078 2°54.509 331.9 11.7 332.9 10.6
2003-02-26 07:56:58 51°15.092 2°54.497 332.5 11.7 333.1 10.7
2003-02-26 07:57:03 51°15.107 2°54.486 333.9 11.7 334 10.8
2003-02-26 07:57:08 51°15.122 2°54.475 335 11.8 335.3 10.8
2003-02-26 07:57:13 51°15.137 2°54.465 335.6 11.8 335.7 10.8
2003-02-26 07:57:18 51°15.152 2°54.455 336 11.8 336.8 10.9
2003-02-26 07:57:23 51°15.167 2°54.445 337.6 11.9 337.7 10.9
2003-02-26 07:57:29 51°15.186 2°54.435 340.1 11.9 339.3 11
2003-02-26 07:57:33 51°15.199 2°54.429 342.7 11.9 341.5 11.1
2003-02-26 07:57:37 51°15.212 2°54.424 344.2 12 343.7 11
2003-02-26 07:57:44 51°15.234 2°54.414 344.9 12 344.6 11.2
2003-02-26 07:57:48 51°15.247 2°54.408 344.2 12 344.7 11.2
2003-02-26 07:57:53 51°15.263 2°54.401 342.7 11.9 344.3 11.2
2003-02-26 07:57:58 51°15.278 2°54.392 341.7 11.9 342.8 11.3
2003-02-26 07:58:03 51°15.294 2°54.384 341.1 11.9 341.7 11.4
2003-02-26 07:58:09 51°15.312 2°54.374 339.9 11.8 340.8 11.3
2003-02-26 07:58:13 51°15.324 2°54.366 338.6 11.8 339.8 11.4
2003-02-26 07:58:18 51°15.339 2°54.356 337.2 11.8 338.9 11.6
2003-02-26 07:58:24 51°15.358 2°54.345 336.9 11.7 337.9 11.5
2003-02-26 07:58:28 51°15.37 2°54.337 336.9 11.7 337.8 11.6
2003-02-26 07:58:33 51°15.385 2°54.327 337.5 11.8 338.2 11.6
2003-02-26 07:58:38 51°15.4 2°54.318 338.4 11.8 338.7 11.6
2003-02-26 07:58:44 51°15.419 2°54.308 339.6 11.8 340 11.8
2003-02-26 07:58:48 51°15.432 2°54.301 341.1 11.8 341.2 11.8
2003-02-26 07:58:53 51°15.447 2°54.293 342.8 11.9 342.5 11.9
2003-02-26 07:58:57 51°15.46 2°54.288 343.6 11.9 343.5 12
2003-02-26 07:59:04 51°15.482 2°54.277 343.6 11.9 343.8 12
2003-02-26 07:59:08 51°15.495 2°54.271 343.1 11.9 343.6 12.1
2003-02-26 07:59:13 51°15.51 2°54.263 342.1 11.9 342.9 12.1
2003-02-26 07:59:19 51°15.53 2°54.254 342.2 11.9 342.6 12.1
2003-02-26 07:59:23 51°15.542 2°54.248 344.3 11.9 343.9 12.3
2003-02-26 07:59:29 51°15.562 2°54.242 347.8 12 346.3 12.3
2003-02-26 07:59:33 51°15.575 2°54.239 350.2 12 349.2 12.3
2003-02-26 07:59:38 51°15.591 2°54.235 351.4 12 350.5 12.3
2003-02-26 07:59:43 51°15.608 2°54.231 352.2 12 351.9 12.4
2003-02-26 07:59:49 51°15.628 2°54.227 352.7 12.1 352.2 12.5
2003-02-26 07:59:53 51°15.641 2°54.224 353.1 12.1 352.6 12.6
2003-02-26 07:59:57 51°15.654 2°54.222 353.2 12.1 352.7 12.6
2003-02-26 08:00:04 51°15.677 2°54.216 352.9 12.1 352.7 12.6
2003-02-26 08:00:08 51°15.691 2°54.213 352.3 12.1 352.3 12.7
2003-02-26 08:00:13 51°15.707 2°54.209 351.7 12.1 351.5 12.8
2003-02-26 08:00:18 51°15.724 2°54.204 351 12.1 350.8 12.9
2003-02-26 08:00:23 51°15.74 2°54.2 350.5 12.1 350.1 12.9
2003-02-26 08:00:28 51°15.756 2°54.195 349.6 12 349.6 13
2003-02-26 08:00:33 51°15.773 2°54.189 348.7 12 349.1 13
2003-02-26 08:00:38 51°15.789 2°54.184 348.6 12 348.5 13
2003-02-26 08:00:42 51°15.802 2°54.18 349 12 348.6 13.1
2003-02-26 08:00:48 51°15.822 2°54.174 349.8 11.8 349.3 13.1
2003-02-26 08:00:53 51°15.837 2°54.17 350.9 11.6 350.1 13.2
2003-02-26 08:00:57 51°15.849 2°54.168 352 11.3 351.5 13.3
2003-02-26 08:01:03 51°15.868 2°54.164 353.3 11.1 352.5 13.2
2003-02-26 08:01:08 51°15.882 2°54.162 354.8 10.9 354.1 13.4
2003-02-26 08:01:13 51°15.897 2°54.161 355.8 10.7 354.9 13.3
2003-02-26 08:01:18 51°15.912 2°54.159 356.3 10.7 355.5 13.4
2003-02-26 08:01:24 51°15.929 2°54.157 356.4 10.4 356.3 13.5
2003-02-26 08:01:28 51°15.94 2°54.156 356.4 10.3 356.5 13.5
2003-02-26 08:01:33 51°15.954 2°54.155 356.2 10.2 356.7 13.6
2003-02-26 08:01:38 51°15.968 2°54.153 356.3 10.1 356.5 13.5
2003-02-26 08:01:43 51°15.982 2°54.152 356.7 10 356.9 13.5
2003-02-26 08:01:49 51°15.998 2°54.151 356.6 10 356.9 13.6
2003-02-26 08:01:53 51°16.009 2°54.15 356.3 9.9 356.9 13.6
2003-02-26 08:01:57 51°16.02 2°54.149 355.9 9.8 356.4 13.6
2003-02-26 08:02:04 51°16.039 2°54.147 355.3 9.8 356.1 13.6
2003-02-26 08:02:08 51°16.05 2°54.145 354.1 9.7 355.7 13.7
2003-02-26 08:02:13 51°16.063 2°54.143 354.2 9.7 355.7 13.7
2003-02-26 08:02:19 51°16.079 2°54.144 358.5 9.7 356.9 13.8
2003-02-26 08:02:24 51°16.092 2°54.146 3.8 9.7 1.4 13.7
2003-02-26 08:02:28 51°16.103 2°54.15 11.7 9.6 6.1 13.8
2003-02-26 08:02:33 51°16.116 2°54.157 18.2 9.6 14.6 13.8
2003-02-26 08:02:39 51°16.13 2°54.167 24.6 9.6 14.6 13.8
2003-02-26 08:02:42 51°16.137 2°54.173 31 9.5 26.1 13.9
2003-02-26 08:02:48 51°16.149 2°54.187 37.5 9.4 31.8 13.9
2003-02-26 08:02:53 51°16.159 2°54.201 43.7 9.3 36.1 13.9
2003-02-26 08:02:59 51°16.17 2°54.219 49.8 9.3 42.8 13.9
2003-02-26 08:03:02 51°16.175 2°54.228 55.8 9.2 47.9 13.9
2003-02-26 08:03:08 51°16.184 2°54.248 60.3 9.2 52.6 13.9
2003-02-26 08:03:13 51°16.19 2°54.265 64.7 9.2 54.8 13.9
2003-02-26 08:03:18 51°16.196 2°54.283 68.4 9.2 59.7 13.9
2003-02-26 08:03:24 51°16.203 2°54.305 71.3 9.2 60.4 13.9
2003-02-26 08:03:28 51°16.207 2°54.32 73.5 9.2 64.6 13.9
2003-02-26 08:03:33 51°16.212 2°54.339 75.6 9.2 66.3 13.9
2003-02-26 08:03:38 51°16.216 2°54.358 77.5 9.3 68.8 13.8
2003-02-26 08:03:43 51°16.221 2°54.377 78.7 9.3 70.2 13.8
2003-02-26 08:03:48 51°16.225 2°54.397 79.3 9.3 70.9 13.8
2003-02-26 08:03:53 51°16.229 2°54.417 79.5 9.4 71.5 13.8
2003-02-26 08:03:58 51°16.233 2°54.436 79.5 9.4 70.9 13.8
2003-02-26 08:04:03 51°16.238 2°54.454 75 9.1 69.8 13.7
2003-02-26 08:04:08 51°16.244 2°54.47 66.8 8.6 63.7 13.7
2003-02-26 08:04:13 51°16.25 2°54.484 59.5 8.1 58.9 13.7
2003-02-26 08:04:17 51°16.255 2°54.493 52.5 7.5 50.9 13.7
2003-02-26 08:04:23 51°16.264 2°54.506 45.9 7.1 45.3 13.7
2003-02-26 08:04:28 51°16.271 2°54.515 39.3 7.1 45.3 13.7
2003-02-26 08:04:33 51°16.279 2°54.522 34.1 6.5 35.8 13.7
2003-02-26 08:04:37 51°16.285 2°54.526 26.7 6.2 30.4 13.7
2003-02-26 08:04:44 51°16.295 2°54.533 21.7 5.8 24.7 13.7
2003-02-26 08:04:48 51°16.301 2°54.536 14.4 5.6 20.1 13.7
2003-02-26 08:04:53 51°16.308 2°54.539 8.4 5.5 17.4 13.7
2003-02-26 08:04:58 51°16.315 2°54.54 2.5 5.2 11.1 13.7
2003-02-26 08:05:03 51°16.322 2°54.541 356.7 5.1 10.3 13.7
2003-02-26 08:05:08 51°16.328 2°54.541 351 4.7 2.3 13.6
2003-02-26 08:05:13 51°16.334 2°54.54 345.3 4.6 359.5 13.6
2003-02-26 08:05:18 51°16.34 2°54.539 339.6 4.4 353.2 13.6
2003-02-26 08:05:23 51°16.346 2°54.537 335.1 4.2 349.8 13.5
2003-02-26 08:05:28 51°16.351 2°54.534 329.6 4.1 344.5 13.5
2003-02-26 08:05:33 51°16.356 2°54.531 323.3 3.9 342 13.6
2003-02-26 08:05:38 51°16.36 2°54.527 317.8 3.7 335.8 13.6
2003-02-26 08:05:43 51°16.364 2°54.523 313.5 3.6 332.2 13.6
2003-02-26 08:05:48 51°16.368 2°54.519 307.2 3.4 326.7 13.6
2003-02-26 08:05:53 51°16.372 2°54.514 302 3.3 324 13.7
2003-02-26 08:05:58 51°16.374 2°54.51 296.7 3.2 321.3 13.7
2003-02-26 08:06:04 51°16.378 2°54.504 292.7 3 313.3 13.8
2003-02-26 08:06:08 51°16.379 2°54.5 286.4 2.9 308.9 13.7
2003-02-26 08:06:13 51°16.381 2°54.495 282.5 2.7 303 13.8
2003-02-26 08:06:17 51°16.382 2°54.491 276.5 2.6 295.1 13.8
2003-02-26 08:06:23 51°16.383 2°54.485 272.5 2.5 290.8 13.8
2003-02-26 08:06:28 51°16.383 2°54.48 266.5 2.3 284.2 13.8
2003-02-26 08:06:33 51°16.384 2°54.475 261.6 2.3 281.5 13.8
2003-02-26 08:06:38 51°16.384 2°54.471 256.7 2.1 273.7 13.9
2003-02-26 08:06:43 51°16.383 2°54.466 253 2 268.3 13.9
2003-02-26 08:06:48 51°16.383 2°54.462 248.2 1.8 263.4 13.9
2003-02-26 08:06:53 51°16.383 2°54.459 245.6 1.7 259.8 13.9
2003-02-26 08:06:56 51°16.383 2°54.457 242.7 1.5 257.7 13.9
2003-02-26 08:07:04 51°16.382 2°54.453 241.6 1.4 254.7 13.9
2003-02-26 08:07:08 51°16.382 2°54.451 241.2 1.3 255.3 13.9
2003-02-26 08:07:13 51°16.382 2°54.449 240.7 1.2 254.7 13.9
2003-02-26 08:07:17 51°16.382 2°54.447 239.8 1.1 253.4 13.9
2003-02-26 08:07:24 51°16.381 2°54.444 238.7 1.1 251.5 13.9
2003-02-26 08:07:28 51°16.38 2°54.442 236.3 1.1 247.9 13.9
2003-02-26 08:07:33 51°16.379 2°54.441 234 1.1 242.2 14
2003-02-26 08:07:38 51°16.378 2°54.44 230.9 1 239.1 13.9
2003-02-26 08:07:43 51°16.377 2°54.437 227.7 1.1 231.9 14
2003-02-26 08:07:49 51°16.375 2°54.435 224.6 1.1 228.6 14
2003-02-26 08:07:53 51°16.374 2°54.434 222.3 1.1 221.4 14
2003-02-26 08:07:56 51°16.374 2°54.432 220.6 1.2 216.6 14
2003-02-26 08:08:03 51°16.371 2°54.43 219.2 1.2 213.4 14
2003-02-26 08:08:09 51°16.37 2°54.429 218.3 1.3 212.4 14
2003-02-26 08:08:13 51°16.369 2°54.427 217.3 1.3 209.1 13.9
2003-02-26 08:08:16 51°16.368 2°54.426 216.5 1.4 206.8 14
2003-02-26 08:08:23 51°16.365 2°54.424 215.9 1.4 206.8 14
2003-02-26 08:08:28 51°16.364 2°54.423 215.2 1.5 205.3 14
2003-02-26 08:08:33 51°16.361 2°54.421 214.6 1.6 205.3 14
2003-02-26 08:08:38 51°16.359 2°54.42 214 1.7 203.1 14
2003-02-26 08:08:44 51°16.356 2°54.417 213.4 1.8 203.1 14
2003-02-26 08:08:48 51°16.354 2°54.417 212.8 1.9 202.5 14
2003-02-26 08:08:53 51°16.352 2°54.415 212.6 1.9 202.2 14
2003-02-26 08:08:58 51°16.349 2°54.413 212.2 1.9 201.1 14
2003-02-26 08:09:04 51°16.347 2°54.411 211.9 1.9 200.9 14
2003-02-26 08:09:08 51°16.344 2°54.41 211.5 1.9 200.4 14
2003-02-26 08:09:13 51°16.342 2°54.409 211.2 2 199.5 14
2003-02-26 08:09:16 51°16.34 2°54.408 210.9 2 199.8 13.9
2003-02-26 08:09:24 51°16.336 2°54.406 210.9 2 199.2 14
2003-02-26 08:09:28 51°16.334 2°54.404 211.8 2 200.5 14
2003-02-26 08:09:32 51°16.332 2°54.403 213.2 2 200.7 14
2003-02-26 08:09:38 51°16.329 2°54.401 215.3 2 201.7 14
2003-02-26 08:09:44 51°16.326 2°54.399 217.3 2 205.8 13.9
2003-02-26 08:09:48 51°16.325 2°54.397 219.8 2 209.1 13.9
2003-02-26 08:09:53 51°16.322 2°54.394 221.9 2 210.4 13.9
2003-02-26 08:09:58 51°16.32 2°54.392 223.7 1.8 215.8 13.9
2003-02-26 08:10:03 51°16.319 2°54.389 225.5 1.8 216.7 14
2003-02-26 08:10:08 51°16.317 2°54.387 227.2 1.8 220.8 14
2003-02-26 08:10:13 51°16.315 2°54.384 228.3 1.8 220.8 14
2003-02-26 08:10:18 51°16.313 2°54.381 229.8 1.7 225 14
2003-02-26 08:10:23 51°16.311 2°54.378 231.1 1.7 226.9 14
2003-02-26 08:10:28 51°16.31 2°54.376 232.4 1.7 229.3 14
2003-02-26 08:10:33 51°16.308 2°54.373 233.7 1.7 229.7 14
2003-02-26 08:10:38 51°16.307 2°54.369 234.9 1.7 232.9 14
2003-02-26 08:10:43 51°16.306 2°54.366 236.3 1.7 234.1 14.1
2003-02-26 08:10:48 51°16.305 2°54.363 237.4 1.6 238.1 14.1
2003-02-26 08:10:53 51°16.304 2°54.36 238.1 1.6 238.6 14.1
2003-02-26 08:10:59 51°16.303 2°54.357 238.8 1.6 240.8 14
2003-02-26 08:11:03 51°16.302 2°54.355 239.5 1.5 243.1 14
2003-02-26 08:11:08 51°16.301 2°54.352 240.2 1.5 244.6 14
2003-02-26 08:11:13 51°16.301 2°54.349 240.9 1.4 245.1 14
2003-02-26 08:11:18 51°16.3 2°54.346 241.6 1.4 245.1 14.1
2003-02-26 08:11:23 51°16.299 2°54.344 242 1.4 248.7 14
2003-02-26 08:11:28 51°16.299 2°54.341 242.5 1.4 249.6 14
2003-02-26 08:11:33 51°16.298 2°54.338 242.9 1.3 250.4 14
2003-02-26 08:11:38 51°16.298 2°54.335 243.3 1.3 252.7 14
2003-02-26 08:11:43 51°16.297 2°54.333 243.5 1.3 252.4 14
2003-02-26 08:11:48 51°16.297 2°54.33 243.8 1.3 254 14
2003-02-26 08:11:53 51°16.296 2°54.327 243.9 1.3 253.5 14
2003-02-26 08:11:58 51°16.296 2°54.325 244 1.3 253.5 14
2003-02-26 08:12:03 51°16.296 2°54.322 244 1.2 255.1 14
2003-02-26 08:12:09 51°16.295 2°54.319 243.8 1.2 255.3 14
2003-02-26 08:12:13 51°16.295 2°54.317 243.6 1.2 254.9 14.1
2003-02-26 08:12:18 51°16.294 2°54.315 243.1 1.2 255.9 14.1
2003-02-26 08:12:23 51°16.294 2°54.313 242.7 1.1 256.3 14.1
2003-02-26 08:12:28 51°16.293 2°54.311 241.9 1.1 255.3 14
2003-02-26 08:12:33 51°16.293 2°54.308 241 1.1 255.3 14
2003-02-26 08:12:38 51°16.292 2°54.306 240.2 1.1 252.7 14.1
2003-02-26 08:12:43 51°16.292 2°54.304 239.2 1 250.5 14
2003-02-26 08:12:48 51°16.291 2°54.302 238.2 1 249.8 14
2003-02-26 08:12:53 51°16.291 2°54.3 237.2 1 249.1 14
2003-02-26 08:12:59 51°16.29 2°54.298 236.2 1 249.1 14
2003-02-26 08:13:03 51°16.29 2°54.297 235.3 0.9 245.9 14.1
2003-02-26 08:13:09 51°16.289 2°54.294 234.5 0.9 245.3 14.1
2003-02-26 08:13:13 51°16.288 2°54.293 233.7 0.9 243.8 14
2003-02-26 08:13:17 51°16.288 2°54.291 232.8 0.9 243.1 14.1
2003-02-26 08:13:24 51°16.287 2°54.289 231.9 0.8 240.9 14
2003-02-26 08:13:28 51°16.287 2°54.288 230.9 0.8 237.4 14.1
2003-02-26 08:13:33 51°16.286 2°54.286 230.3 0.8 236.9 14.1
2003-02-26 08:13:38 51°16.285 2°54.285 229.5 0.8 235.3 14
2003-02-26 08:13:43 51°16.284 2°54.284 228.7 0.8 236.4 14.1
2003-02-26 08:13:48 51°16.284 2°54.283 227.9 0.7 232.2 14.1
2003-02-26 08:13:53 51°16.283 2°54.282 227.1 0.7 232.6 14.1
2003-02-26 08:13:58 51°16.282 2°54.281 226.5 0.7 230.7 14.1
2003-02-26 08:14:04 51°16.281 2°54.279 225.7 0.7 225.3 14
2003-02-26 08:14:08 51°16.281 2°54.279 225.1 0.7 225.7 14.1
2003-02-26 08:14:13 51°16.28 2°54.278 224.4 0.7 222.4 14.1
2003-02-26 08:14:19 51°16.279 2°54.277 223.7 0.6 221.6 14.1
2003-02-26 08:14:23 51°16.279 2°54.276 223.2 0.6 217.8 14.1
2003-02-26 08:14:28 51°16.278 2°54.275 222.5 0.6 215.6 14.1
2003-02-26 08:14:33 51°16.277 2°54.274 221.8 0.6 214.4 14.1
2003-02-26 08:14:38 51°16.276 2°54.273 221.1 0.6 211.8 14
2003-02-26 08:14:42 51°16.275 2°54.272 220.4 0.6 210.3 14.1
2003-02-26 08:14:48 51°16.275 2°54.272 219.8 0.6 208.2 14.1
2003-02-26 08:14:53 51°16.274 2°54.271 219.1 0.6 207.1 14.1
2003-02-26 08:14:57 51°16.273 2°54.271 218.5 0.6 202.5 14.1
2003-02-26 08:15:03 51°16.272 2°54.27 217.9 0.6 202.5 14
2003-02-26 08:15:08 51°16.272 2°54.27 217.2 0.6 199.1 14
2003-02-26 08:15:13 51°16.271 2°54.269 216.7 0.6 199.4 14
2003-02-26 08:15:17 51°16.27 2°54.269 216.1 0.5 195.4 14
2003-02-26 08:15:23 51°16.269 2°54.269 215.5 0.6 196.1 14.1
2003-02-26 08:15:28 51°16.268 2°54.268 214.8 0.6 192.9 14.1
2003-02-26 08:15:33 51°16.267 2°54.268 214.3 0.6 192 14.1
2003-02-26 08:15:37 51°16.267 2°54.268 213.7 0.6 188.8 14.1
2003-02-26 08:15:44 51°16.267 2°54.268 213.2 0.6 188.1 14.1
2003-02-26 08:15:48 51°16.266 2°54.268 212.6 0.6 184.4 14.1
2003-02-26 08:15:53 51°16.266 2°54.268 212 0.6 183.7 14.1
2003-02-26 08:15:58 51°16.265 2°54.268 211.5 0.6 179.7 14.1
2003-02-26 08:16:03 51°16.264 2°54.268 211.1 0.5 181 14.1
2003-02-26 08:16:08 51°16.263 2°54.268 210.5 0.5 179.5 14.1
2003-02-26 08:16:13 51°16.263 2°54.268 210 0.5 177 14.1
2003-02-26 08:16:19 51°16.262 2°54.268 209.6 0.6 173.5 14.1
2003-02-26 08:16:23 51°16.261 2°54.268 209 0.6 172.5 14.1
2003-02-26 08:16:28 51°16.26 2°54.269 208.6 0.6 171 14.1
2003-02-26 08:16:33 51°16.259 2°54.269 208.2 0.6 170.1 14.1
2003-02-26 08:16:37 51°16.259 2°54.269 207.5 0.6 170.1 14
2003-02-26 08:16:44 51°16.257 2°54.27 207.1 0.6 167.8 14
2003-02-26 08:16:48 51°16.257 2°54.27 206.7 0.6 165.4 14
2003-02-26 08:16:53 51°16.256 2°54.27 206.2 0.6 165.9 14
2003-02-26 08:16:58 51°16.255 2°54.27 205.7 0.6 163.9 14
2003-02-26 08:17:03 51°16.254 2°54.271 205.4 0.6 164.4 14
2003-02-26 08:17:09 51°16.253 2°54.271 204.8 0.6 161.3 14
2003-02-26 08:17:13 51°16.252 2°54.272 204.4 0.6 162 14
2003-02-26 08:17:19 51°16.252 2°54.272 204.1 0.6 159.8 14
2003-02-26 08:17:23 51°16.251 2°54.273 203.8 0.6 158.7 14
2003-02-26 08:17:28 51°16.25 2°54.273 203.4 0.6 159.6 14
2003-02-26 08:17:33 51°16.249 2°54.274 203 0.6 158.6 14
2003-02-26 08:17:37 51°16.249 2°54.274 202.6 0.6 157.4 14
2003-02-26 08:17:43 51°16.248 2°54.275 202.3 0.6 155.7 14
2003-02-26 08:17:48 51°16.247 2°54.275 202 0.6 157 14
2003-02-26 08:17:53 51°16.246 2°54.276 201.6 0.6 154.7 14
2003-02-26 08:17:58 51°16.245 2°54.276 201.4 0.6 157 14
2003-02-26 08:18:04 51°16.245 2°54.277 201.1 0.6 153.2 14
2003-02-26 08:18:08 51°16.244 2°54.278 201 0.6 153.3 14
2003-02-26 08:18:13 51°16.243 2°54.278 200.7 0.6 151.2 14
2003-02-26 08:18:19 51°16.242 2°54.279 200.3 0.6 151.2 14
2003-02-26 08:18:23 51°16.242 2°54.28 199.9 0.6 151.1 14
2003-02-26 08:18:28 51°16.241 2°54.281 199.6 0.6 150.6 14
2003-02-26 08:18:33 51°16.241 2°54.281 199.2 0.7 149.7 14
2003-02-26 08:18:37 51°16.24 2°54.282 198.9 0.7 149.1 14
2003-02-26 08:18:43 51°16.239 2°54.283 198.4 0.6 148.7 14
2003-02-26 08:18:48 51°16.238 2°54.284 198 0.6 148.4 14
2003-02-26 08:18:53 51°16.238 2°54.284 197.7 0.7 146.4 14
2003-02-26 08:18:57 51°16.237 2°54.285 197.4 0.7 147 14
2003-02-26 08:19:03 51°16.236 2°54.286 196.8 0.7 146.8 14
2003-02-26 08:19:08 51°16.235 2°54.287 196.4 0.7 145.1 14
2003-02-26 08:19:13 51°16.234 2°54.288 196 0.7 145.3 14
2003-02-26 08:19:17 51°16.234 2°54.288 195.8 0.7 144 14
2003-02-26 08:19:24 51°16.233 2°54.29 195.4 0.7 144.1 14
2003-02-26 08:19:28 51°16.232 2°54.291 195.2 0.7 143.8 14
2003-02-26 08:19:33 51°16.231 2°54.291 194.8 0.7 141.6 14
2003-02-26 08:19:37 51°16.23 2°54.292 194.5 0.7 141.5 14
2003-02-26 08:19:43 51°16.23 2°54.293 194.2 0.8 140.7 14
2003-02-26 08:19:48 51°16.229 2°54.294 194 0.8 141.1 14
2003-02-26 08:19:53 51°16.228 2°54.295 193.7 0.7 139.5 14
2003-02-26 08:19:57 51°16.228 2°54.296 193.3 0.7 139.3 14
2003-02-26 08:20:04 51°16.227 2°54.298 193 0.7 138.1 14
2003-02-26 08:20:08 51°16.226 2°54.298 192.8 0.7 138.1 13.9
2003-02-26 08:20:13 51°16.225 2°54.299 192.4 0.8 137.9 13.9
2003-02-26 08:20:18 51°16.225 2°54.3 192.2 0.8 137.4 14
2003-02-26 08:20:23 51°16.224 2°54.302 191.9 0.8 136.7 14
2003-02-26 08:20:29 51°16.223 2°54.303 191.6 0.8 136.4 14
2003-02-26 08:20:33 51°16.222 2°54.304 191.4 0.8 136 14
2003-02-26 08:20:37 51°16.222 2°54.305 191.2 0.8 136 14
2003-02-26 08:20:43 51°16.221 2°54.306 190.9 0.7 136.1 13.9
2003-02-26 08:20:48 51°16.22 2°54.307 190.8 0.7 135 13.9
2003-02-26 08:20:53 51°16.219 2°54.308 190.4 0.7 134.5 13.9
2003-02-26 08:20:59 51°16.218 2°54.31 190.2 0.7 135.1 13.9
2003-02-26 08:21:04 51°16.218 2°54.311 190.1 0.7 133.9 13.9
2003-02-26 08:21:08 51°16.217 2°54.312 189.7 0.7 133.4 13.9
2003-02-26 08:21:13 51°16.216 2°54.313 189.4 0.8 133.4 13.9
2003-02-26 08:21:18 51°16.215 2°54.314 189.2 0.8 132.8 13.9
2003-02-26 08:21:23 51°16.215 2°54.315 189 0.7 131.7 13.9
2003-02-26 08:21:28 51°16.214 2°54.317 188.7 0.8 131.2 13.9
2003-02-26 08:21:33 51°16.213 2°54.318 188.4 0.8 131.9 13.9
2003-02-26 08:21:38 51°16.212 2°54.32 188.1 0.8 131.1 13.9
2003-02-26 08:21:44 51°16.212 2°54.321 187.9 0.8 131.3 13.9
2003-02-26 08:21:48 51°16.211 2°54.322 187.5 0.8 130.8 13.9
2003-02-26 08:21:53 51°16.211 2°54.323 187.2 0.8 129.2 13.9
2003-02-26 08:21:57 51°16.21 2°54.324 186.9 0.8 128.8 13.9
2003-02-26 08:22:03 51°16.209 2°54.326 186.6 0.8 128.6 13.9
2003-02-26 08:22:08 51°16.209 2°54.327 186.4 0.8 128.1 13.9
2003-02-26 08:22:13 51°16.208 2°54.329 186.1 0.8 128 13.9
2003-02-26 08:22:18 51°16.207 2°54.33 185.9 0.8 129.4 13.9
2003-02-26 08:22:24 51°16.206 2°54.332 185.8 0.8 129.4 13.9
2003-02-26 08:22:28 51°16.206 2°54.333 185.4 0.9 135.7 13.9
2003-02-26 08:22:33 51°16.204 2°54.334 185.2 1 140.6 13.9
2003-02-26 08:22:37 51°16.202 2°54.335 184.6 1.4 155 13.9
2003-02-26 08:22:43 51°16.199 2°54.337 183.9 1.7 158.8 13.9
2003-02-26 08:22:48 51°16.195 2°54.338 183.1 2.4 164 13.9
2003-02-26 08:22:53 51°16.191 2°54.34 183.1 2.8 165.7 13.9
2003-02-26 08:22:57 51°16.187 2°54.341 184 3.2 167.9 13.8
2003-02-26 08:23:04 51°16.18 2°54.342 185.1 3.6 170.4 13.8
2003-02-26 08:23:08 51°16.175 2°54.343 187.4 3.9 172.4 13.8
2003-02-26 08:23:13 51°16.169 2°54.344 189.4 4.2 174.4 13.8
2003-02-26 08:23:18 51°16.162 2°54.344 191.8 4.6 179.1 13.8
2003-02-26 08:23:23 51°16.155 2°54.343 194.7 4.8 181.8 13.8
2003-02-26 08:23:28 51°16.148 2°54.341 198 4.9 184.7 13.7
2003-02-26 08:23:33 51°16.141 2°54.338 201.4 5.2 190.3 13.7
2003-02-26 08:23:37 51°16.135 2°54.336 204.3 5.4 194.7 13.7
2003-02-26 08:23:43 51°16.126 2°54.33 209 5.7 199.4 13.7
2003-02-26 08:23:49 51°16.117 2°54.323 213 5.9 202.1 13.7
2003-02-26 08:23:53 51°16.111 2°54.316 217.4 6.1 207.1 13.7
2003-02-26 08:23:58 51°16.104 2°54.308 221 6.4 214 13.7
2003-02-26 08:24:03 51°16.097 2°54.298 225.6 6.6 219.7 13.7
2003-02-26 08:24:08 51°16.09 2°54.287 231.1 6.8 224.6 13.7
2003-02-26 08:24:13 51°16.085 2°54.274 235.1 6.8 227 13.7
2003-02-26 08:24:18 51°16.08 2°54.261 240.9 7 235.9 13.7
2003-02-26 08:24:23 51°16.076 2°54.246 244.7 7.2 241.5 13.7
2003-02-26 08:24:29 51°16.072 2°54.227 249.6 7.3 245.9 13.7
2003-02-26 08:24:33 51°16.07 2°54.214 254.8 7.5 250.8 13.7
2003-02-26 08:24:37 51°16.068 2°54.199 260.5 7.9 257.1 13.7
2003-02-26 08:24:44 51°16.066 2°54.173 263.4 8.2 260.8 13.6
2003-02-26 08:24:48 51°16.066 2°54.158 267.2 8.6 266 13.7
2003-02-26 08:24:53 51°16.066 2°54.137 270.2 8.9 268.5 13.7
2003-02-26 08:24:57 51°16.067 2°54.121 272.1 9.1 270.8 13.7
2003-02-26 08:25:03 51°16.068 2°54.095 272.8 9.5 272.7 13.8
2003-02-26 08:25:08 51°16.069 2°54.073 272.9 9.7 273.2 13.8
2003-02-26 08:25:13 51°16.069 2°54.051 272.4 9.9 273 13.8
2003-02-26 08:25:18 51°16.07 2°54.027 271.8 10.4 272.1 13.8
2003-02-26 08:25:23 51°16.07 2°54.003 270.8 10.8 271.8 13.8
2003-02-26 08:25:28 51°16.071 2°53.977 272.9 11.4 271.9 13.8
2003-02-26 08:25:32 51°16.073 2°53.956 276.3 11.6 273.1 13.8
2003-02-26 08:25:39 51°16.078 2°53.918 281.5 12.1 278.9 13.8
2003-02-26 08:25:44 51°16.083 2°53.892 285.6 12.5 284.7 13.9
2003-02-26 08:25:48 51°16.088 2°53.87 288.1 12.7 287.6 13.9
2003-02-26 08:25:53 51°16.095 2°53.843 290 12.9 289.7 13.9
2003-02-26 08:25:58 51°16.102 2°53.816 292.8 13.1 291.8 14
2003-02-26 08:26:03 51°16.11 2°53.79 295.2 13.2 294 14
2003-02-26 08:26:08 51°16.119 2°53.764 296.8 13.3 296 14
2003-02-26 08:26:13 51°16.128 2°53.738 297.9 13.4 297.6 14.1
2003-02-26 08:26:18 51°16.137 2°53.712 300.5 13.4 298.9 14.1
2003-02-26 08:26:23 51°16.148 2°53.688 303.3 13.5 302.8 14.1
2003-02-26 08:26:29 51°16.162 2°53.659 306.4 13.6 305.7 14.1
2003-02-26 08:26:33 51°16.171 2°53.64 308.3 13.7 307.9 14.2
2003-02-26 08:26:39 51°16.186 2°53.612 308.9 13.7 308.7 14.2
2003-02-26 08:26:44 51°16.198 2°53.589 309.8 13.7 308.7 14.2
2003-02-26 08:26:48 51°16.209 2°53.57 311.2 13.8 310.9 14.2
2003-02-26 08:26:53 51°16.222 2°53.548 313.2 13.9 312.3 14.2
2003-02-26 08:26:58 51°16.236 2°53.528 316.8 13.9 315.8 14.4
2003-02-26 08:27:03 51°16.251 2°53.508 318.6 13.9 318.2 14.3
2003-02-26 08:27:08 51°16.266 2°53.487 319.9 14 319.5 14.4
2003-02-26 08:27:12 51°16.278 2°53.472 321.2 14 320.1 14.3
2003-02-26 08:27:19 51°16.3 2°53.445 321.7 14 321.8 14.4
2003-02-26 08:27:24 51°16.315 2°53.426 322.1 14.1 322.4 14.4
2003-02-26 08:27:28 51°16.328 2°53.412 323.5 14.1 323.2 14.5
2003-02-26 08:27:33 51°16.344 2°53.393 323.8 14.1 324 14.5
2003-02-26 08:27:38 51°16.36 2°53.375 323.5 14.1 323.8 14.4
2003-02-26 08:27:43 51°16.376 2°53.356 323.7 14.1 324 14.5
2003-02-26 08:27:48 51°16.392 2°53.338 324.1 14.2 324.1 14.5
2003-02-26 08:27:53 51°16.408 2°53.32 324.1 14.2 324.4 14.5
2003-02-26 08:27:59 51°16.427 2°53.298 324.2 14.2 324.4 14.5
2003-02-26 08:28:04 51°16.443 2°53.28 324.7 14.2 324.8 14.5
2003-02-26 08:28:08 51°16.456 2°53.267 325.8 14.2 325.4 14.4
2003-02-26 08:28:13 51°16.472 2°53.249 325.6 14.2 325.8 14.4
2003-02-26 08:28:19 51°16.492 2°53.227 325 14.2 325.6 14.4
2003-02-26 08:28:23 51°16.505 2°53.213 324.4 14.2 324.9 14.4
2003-02-26 08:28:28 51°16.521 2°53.195 324.3 14.2 324.7 14.3
2003-02-26 08:28:33 51°16.537 2°53.177 324.4 14.2 324.7 14.2
2003-02-26 08:28:37 51°16.55 2°53.162 324.4 14.2 325 14.2
2003-02-26 08:28:44 51°16.572 2°53.137 324.8 14.2 325.1 14
2003-02-26 08:28:48 51°16.586 2°53.124 325.8 14.2 326.1 14
2003-02-26 08:28:53 51°16.602 2°53.106 326.5 14.2 326.3 13.9
2003-02-26 08:28:58 51°16.619 2°53.089 326.7 14.2 327.3 13.9
2003-02-26 08:29:03 51°16.635 2°53.072 327.2 14.2 327.3 13.7
2003-02-26 08:29:08 51°16.652 2°53.056 327.4 14.2 327.8 13.7
2003-02-26 08:29:13 51°16.669 2°53.039 327.6 14.2 327.8 13.6
2003-02-26 08:29:18 51°16.685 2°53.022 327.7 14.2 327.8 13.5
2003-02-26 08:29:23 51°16.702 2°53.006 327.4 14.2 327.8 13.4
2003-02-26 08:29:29 51°16.722 2°52.986 327.3 14.2 327.7 13.3
2003-02-26 08:29:33 51°16.735 2°52.972 327.6 14.2 328 13.1
2003-02-26 08:29:37 51°16.749 2°52.959 327.7 14.2 328 12.9
2003-02-26 08:29:44 51°16.772 2°52.936 327.4 14.2 327.9 12.7
2003-02-26 08:29:48 51°16.785 2°52.922 327.3 14.1 327.7 12.2
2003-02-26 08:29:53 51°16.802 2°52.906 327.4 14.1 327.7 11.6
2003-02-26 08:29:58 51°16.818 2°52.889 327.6 14.1 328.1 11.3
2003-02-26 08:30:04 51°16.838 2°52.869 327.6 14 328.1 11.3
2003-02-26 08:30:08 51°16.851 2°52.856 327.7 14 328.1 11.3
2003-02-26 08:30:13 51°16.868 2°52.84 327.5 14 328 11.4
2003-02-26 08:30:18 51°16.884 2°52.823 327.4 14 327.8 11.4
2003-02-26 08:30:24 51°16.904 2°52.803 327.3 14.1 327.8 11.4
2003-02-26 08:30:28 51°16.917 2°52.79 326.9 14.1 327.6 11.5
2003-02-26 08:30:33 51°16.933 2°52.773 326.7 14.1 327.2 11.7
2003-02-26 08:30:37 51°16.947 2°52.759 326.8 14.1 327.3 11.7
2003-02-26 08:30:43 51°16.967 2°52.739 326.6 14.1 327.1 11.9
2003-02-26 08:30:48 51°16.983 2°52.722 326.6 14.2 327.1 11.8
2003-02-26 08:30:52 51°16.996 2°52.708 326.7 14.2 327.2 12.1
2003-02-26 08:30:57 51°17.013 2°52.691 327.1 14.2 327.5 12.3
2003-02-26 08:31:04 51°17.036 2°52.668 327.3 14.2 327.8 12.5
2003-02-26 08:31:08 51°17.05 2°52.655 327.3 14.3 327.8 12.3
2003-02-26 08:31:13 51°17.067 2°52.638 327.3 14.3 327.9 11.9
2003-02-26 08:31:19 51°17.087 2°52.618 327.3 14.3 327.9 11.7
2003-02-26 08:31:23 51°17.1 2°52.604 327.1 14.2 327.7 11.7
2003-02-26 08:31:28 51°17.117 2°52.587 326.7 14.1 327.4 11.8
2003-02-26 08:31:33 51°17.133 2°52.571 326.7 14.1 327.3 11.8
2003-02-26 08:31:38 51°17.15 2°52.554 326.7 14.2 327.3 11.9
2003-02-26 08:31:44 51°17.17 2°52.533 326.9 14.2 327.5 11.9
2003-02-26 08:31:49 51°17.186 2°52.516 326.7 14.2 327.3 12
2003-02-26 08:31:53 51°17.199 2°52.502 326.3 14.2 327.1 12
2003-02-26 08:31:58 51°17.216 2°52.485 325.9 14.2 326.6 12.1
2003-02-26 08:32:04 51°17.236 2°52.464 325.9 14.2 326.6 12.3
2003-02-26 08:32:08 51°17.249 2°52.45 325.9 14.2 326.5 12.3
2003-02-26 08:32:13 51°17.265 2°52.433 326.1 14.2 326.7 12.3
2003-02-26 08:32:19 51°17.285 2°52.412 326.2 14.2 326.8 12.3
2003-02-26 08:32:24 51°17.302 2°52.395 326.3 14.2 326.9 12.5
2003-02-26 08:32:28 51°17.315 2°52.381 325.9 14.2 326.7 12.5
2003-02-26 08:32:33 51°17.331 2°52.364 326 14.2 326.7 12.5
2003-02-26 08:32:38 51°17.348 2°52.347 326.2 14.3 326.9 12.6
2003-02-26 08:32:43 51°17.365 2°52.329 326.1 14.3 326.7 12.6
2003-02-26 08:32:48 51°17.381 2°52.312 325.9 14.3 326.5 12.6
2003-02-26 08:32:53 51°17.397 2°52.294 325.8 14.2 326.3 12.5
2003-02-26 08:32:58 51°17.414 2°52.277 326.1 14.2 326.3 12.7
2003-02-26 08:33:03 51°17.431 2°52.26 326.4 14.2 326.9 12.6
2003-02-26 08:33:09 51°17.451 2°52.24 327.3 14.2 327.3 12.6
2003-02-26 08:33:13 51°17.464 2°52.227 328.1 14.2 328 12.7
2003-02-26 08:33:18 51°17.481 2°52.21 328.8 14.2 328.9 12.6
2003-02-26 08:33:23 51°17.499 2°52.195 329.4 14.2 329.9 12.7
2003-02-26 08:33:28 51°17.516 2°52.18 330.5 14.2 330.1 12.6
2003-02-26 08:33:33 51°17.534 2°52.166 331.4 14.3 331.6 12.7
2003-02-26 08:33:37 51°17.547 2°52.154 332.3 14.3 332.2 12.8
2003-02-26 08:33:44 51°17.572 2°52.134 333 14.3 333.1 12.8
2003-02-26 08:33:48 51°17.586 2°52.122 333.3 14.3 333.3 12.7
2003-02-26 08:33:53 51°17.604 2°52.108 333.5 14.3 333.7 12.7
2003-02-26 08:33:59 51°17.626 2°52.092 333.7 14.3 333.6 12.5
2003-02-26 08:34:03 51°17.64 2°52.08 333.7 14.3 333.7 12.5
2003-02-26 08:34:09 51°17.661 2°52.064 333.7 14.3 333.7 12.6
2003-02-26 08:34:13 51°17.676 2°52.052 333.7 14.3 333.6 12.5
2003-02-26 08:34:19 51°17.697 2°52.035 333.6 14.3 333.6 12.6
2003-02-26 08:34:24 51°17.715 2°52.021 333.5 14.3 333.6 12.6
2003-02-26 08:34:28 51°17.729 2°52.01 333.6 14.3 333.5 12.5
2003-02-26 08:34:33 51°17.747 2°51.996 333.6 14.3 333.4 12.6
2003-02-26 08:34:39 51°17.768 2°51.978 333.6 14.3 333.4 12.5
2003-02-26 08:34:43 51°17.782 2°51.967 333.6 14.3 333.3 12.5
2003-02-26 08:34:48 51°17.8 2°51.953 333.6 14.3 333.3 12.5
2003-02-26 08:34:52 51°17.814 2°51.941 333.7 14.3 333.3 12.5
2003-02-26 08:34:58 51°17.836 2°51.924 333.8 14.3 333.5 12.5
2003-02-26 08:35:04 51°17.857 2°51.907 333.8 14.3 333.5 12.5
2003-02-26 08:35:08 51°17.871 2°51.896 333.5 14.3 333.4 12.5
2003-02-26 08:35:13 51°17.889 2°51.882 333.3 14.3 333.2 12.5
2003-02-26 08:35:18 51°17.907 2°51.867 333.2 14.3 333.2 12.5
2003-02-26 08:35:23 51°17.925 2°51.853 333.6 14.3 333.4 12.6
2003-02-26 08:35:28 51°17.942 2°51.839 333.7 14.3 333.9 12.6
2003-02-26 08:35:32 51°17.957 2°51.828 333.6 14.3 333.8 12.6
2003-02-26 08:35:39 51°17.981 2°51.808 333.6 14.3 333.9 12.7
2003-02-26 08:35:44 51°17.999 2°51.794 333.7 14.3 333.9 12.8
2003-02-26 08:35:48 51°18.013 2°51.783 333.7 14.3 334 12.8
2003-02-26 08:35:53 51°18.031 2°51.769 333.7 14.3 334 12.8
2003-02-26 08:35:58 51°18.049 2°51.755 333.7 14.3 334.1 13
2003-02-26 08:36:04 51°18.071 2°51.738 333.5 14.3 334 13
2003-02-26 08:36:08 51°18.085 2°51.727 333.5 14.4 334 13.1
2003-02-26 08:36:13 51°18.103 2°51.713 333.4 14.4 334 13.1
2003-02-26 08:36:19 51°18.125 2°51.698 334.5 14.4 334.6 13.3
2003-02-26 08:36:23 51°18.14 2°51.688 336 14.4 336.1 13.3
2003-02-26 08:36:29 51°18.162 2°51.674 338 14.4 337.5 13.5
2003-02-26 08:36:33 51°18.177 2°51.665 340.1 14.5 338.8 13.5
2003-02-26 08:36:39 51°18.2 2°51.653 340.3 14.5 340.4 13.6
2003-02-26 08:36:44 51°18.218 2°51.641 338.7 14.5 339.4 13.7
2003-02-26 08:36:48 51°18.233 2°51.632 338 14.4 338.7 13.7
2003-02-26 08:36:53 51°18.251 2°51.62 338.8 14.4 338.3 13.9
2003-02-26 08:36:58 51°18.27 2°51.609 339.2 14.5 339.3 14
2003-02-26 08:37:03 51°18.289 2°51.597 338.5 14.5 338.8 14.2
2003-02-26 08:37:08 51°18.307 2°51.585 337.4 14.5 338 14.3
2003-02-26 08:37:13 51°18.326 2°51.573 337.1 14.4 337.6 14.3
2003-02-26 08:37:19 51°18.348 2°51.559 338.3 14.3 338 14.3
2003-02-26 08:37:23 51°18.362 2°51.551 339.7 14.1 339.4 14.4
2003-02-26 08:37:28 51°18.38 2°51.541 340 13.8 340.4 14.6
2003-02-26 08:37:33 51°18.397 2°51.531 339.6 13.6 340.5 14.8
2003-02-26 08:37:38 51°18.414 2°51.521 339.3 13.3 339.8 14.9
2003-02-26 08:37:43 51°18.431 2°51.511 338.1 13.1 339.2 15.1
2003-02-26 08:37:49 51°18.45 2°51.497 335.6 12.9 337.8 15.1
2003-02-26 08:37:53 51°18.462 2°51.486 331.3 12.6 334.1 15.2
2003-02-26 08:37:58 51°18.476 2°51.471 325.8 12.3 329.3 15.3
2003-02-26 08:38:03 51°18.489 2°51.455 319.9 12 323.9 15.4
2003-02-26 08:38:08 51°18.5 2°51.437 314.1 11.6 319.5 15.4
2003-02-26 08:38:13 51°18.509 2°51.42 308.5 11.1 315.1 15.6
2003-02-26 08:38:18 51°18.516 2°51.402 301 10.2 308.6 15.5
2003-02-26 08:38:24 51°18.522 2°51.381 293.1 9.4 301.1 15.6
2003-02-26 08:38:28 51°18.525 2°51.367 285.3 8.7 293.8 15.7
2003-02-26 08:38:33 51°18.527 2°51.35 278 8.3 289.3 15.8
2003-02-26 08:38:38 51°18.527 2°51.335 269.4 7.6 280.4 15.8
2003-02-26 08:38:44 51°18.525 2°51.318 260.5 6.8 269.8 15.9
2003-02-26 08:38:48 51°18.523 2°51.308 251.6 6.2 258.6 15.9
2003-02-26 08:38:53 51°18.519 2°51.296 244.6 6.1 253.4 15.9
2003-02-26 08:38:58 51°18.516 2°51.285 241.6 5.9 244.4 16
2003-02-26 08:39:02 51°18.513 2°51.276 241.4 5.8 242.7 16
2003-02-26 08:39:08 51°18.509 2°51.262 243.8 5.7 244 16
2003-02-26 08:39:13 51°18.506 2°51.25 247.9 5.7 246.9 16
2003-02-26 08:39:19 51°18.504 2°51.237 252.3 5.5 250.9 16.1
2003-02-26 08:39:24 51°18.503 2°51.226 255.7 5.2 256.4 16
2003-02-26 08:39:28 51°18.502 2°51.217 259.7 5 261.1 16
2003-02-26 08:39:32 51°18.502 2°51.209 262.3 4.9 262.6 16
2003-02-26 08:39:38 51°18.501 2°51.196 264.1 4.8 265 16.1
2003-02-26 08:39:44 51°18.501 2°51.184 265 4.6 269.3 16
2003-02-26 08:39:48 51°18.501 2°51.176 265.8 4.5 271 16.1
2003-02-26 08:39:53 51°18.501 2°51.167 265.6 4.4 271.4 16
2003-02-26 08:39:57 51°18.501 2°51.159 264.6 4.2 270.7 16.1
2003-02-26 08:40:04 51°18.501 2°51.147 262.6 4.1 269.7 16.1
2003-02-26 08:40:08 51°18.501 2°51.14 259.8 3.9 267.8 16.1
2003-02-26 08:40:13 51°18.501 2°51.132 256.9 3.8 265.5 16.1
2003-02-26 08:40:17 51°18.5 2°51.126 254.3 3.7 262.3 16.1
2003-02-26 08:40:23 51°18.499 2°51.117 252 3.5 260.2 16.1
2003-02-26 08:40:29 51°18.497 2°51.108 250.3 3.4 257.8 16.1
2003-02-26 08:40:33 51°18.496 2°51.102 248.2 3.4 256.1 16.1
2003-02-26 08:40:38 51°18.495 2°51.096 247.3 3.3 253.1 16.1
2003-02-26 08:40:43 51°18.494 2°51.089 246.4 3.2 252.6 16.1
2003-02-26 08:40:48 51°18.492 2°51.083 245.8 3.2 250.8 16
2003-02-26 08:40:53 51°18.491 2°51.076 245.7 3.1 251.4 16.1
2003-02-26 08:40:59 51°18.489 2°51.069 245.5 3.1 250.9 16.1
2003-02-26 08:41:04 51°18.488 2°51.063 245.5 2.9 251.2 16.1
2003-02-26 08:41:08 51°18.487 2°51.058 245.4 2.8 250.7 16.2
2003-02-26 08:41:13 51°18.486 2°51.053 245.2 2.7 251.9 16.1
2003-02-26 08:41:18 51°18.485 2°51.048 244.5 2.4 250.5 16.1
2003-02-26 08:41:23 51°18.485 2°51.045 243.5 2.1 251.4 16.1
2003-02-26 08:41:29 51°18.484 2°51.041 241.6 1.8 250 16.1
2003-02-26 08:41:33 51°18.483 2°51.039 240.2 1.3 253.1 16.1
2003-02-26 08:41:39 51°18.483 2°51.037 238.6 1 251.7 16.1
2003-02-26 08:41:44 51°18.482 2°51.035 237.3 0.9 253.6 16.1
2003-02-26 08:41:48 51°18.482 2°51.034 235.1 0.9 247.7 16.1
2003-02-26 08:41:53 51°18.481 2°51.032 233.5 0.9 247.2 16.1
2003-02-26 08:41:58 51°18.481 2°51.031 231.9 0.8 239.5 16.1
2003-02-26 08:42:03 51°18.48 2°51.029 230.8 0.8 241.5 16
2003-02-26 08:42:08 51°18.48 2°51.028 229.3 0.7 236.1 16
2003-02-26 08:42:12 51°18.479 2°51.027 228.3 0.7 233.7 16.1
2003-02-26 08:42:17 51°18.479 2°51.026 227.2 0.6 231 16.1
2003-02-26 08:42:24 51°18.478 2°51.025 226.6 0.6 232.6 16.1
2003-02-26 08:42:28 51°18.477 2°51.024 225.7 0.6 227.5 16.1
2003-02-26 08:42:34 51°18.477 2°51.023 225.4 0.6 227.5 16
2003-02-26 08:42:37 51°18.477 2°51.023 225 0.5 227.4 16.1
2003-02-26 08:42:43 51°18.476 2°51.022 224.4 0.5 225.2 16.1
2003-02-26 08:42:48 51°18.476 2°51.021 223.8 0.5 221.9 16.1
2003-02-26 08:42:53 51°18.475 2°51.021 223.3 0.4 220.8 16.2
2003-02-26 08:42:57 51°18.475 2°51.02 222.8 0.4 221 16.2
2003-02-26 08:43:03 51°18.474 2°51.019 222.6 0.4 223.1 16.1
2003-02-26 08:43:08 51°18.474 2°51.019 222.1 0.3 219.3 16.1
2003-02-26 08:43:14 51°18.474 2°51.018 221.9 0.3 222.2 16
2003-02-26 08:43:17 51°18.473 2°51.018 221.5 0.3 218.6 16.1
2003-02-26 08:43:24 51°18.473 2°51.018 221.2 0.3 218.4 16.1
2003-02-26 08:43:28 51°18.473 2°51.018 220.7 0.3 202.6 16
2003-02-26 08:43:32 51°18.473 2°51.018 220.1 0.2 208.2 16.1
2003-02-26 08:43:37 51°18.472 2°51.017 219.7 0.2 199.8 16.1
2003-02-26 08:43:43 51°18.472 2°51.017 219.3 0.2 198.7 16.1
2003-02-26 08:43:48 51°18.472 2°51.017 218.8 0.1 192.5 16.1
2003-02-26 08:43:53 51°18.472 2°51.017 218.4 0.2 178.5 16.1
2003-02-26 08:43:57 51°18.472 2°51.017 217.8 0.2 176.4 16.1
2003-02-26 08:44:03 51°18.471 2°51.018 217.5 0.1 167.1 16.1
2003-02-26 08:44:08 51°18.471 2°51.018 217 0.1 161.3 16.1
2003-02-26 08:44:13 51°18.471 2°51.018 216.6 0.1 153.5 16.1
2003-02-26 08:44:19 51°18.471 2°51.018 216 0.1 153.5 16.1
2003-02-26 08:44:24 51°18.471 2°51.018 215.6 0.1 153.5 16.1
2003-02-26 08:44:28 51°18.471 2°51.019 215.2 0.1 121.5 16.1
2003-02-26 08:44:33 51°18.471 2°51.019 214.8 0.2 115.4 16.1
2003-02-26 08:44:39 51°18.471 2°51.019 214.4 0.2 118.5 16.1
2003-02-26 08:44:44 51°18.47 2°51.02 214 0.2 118.5 16.1
2003-02-26 08:44:49 51°18.47 2°51.02 213.7 0.2 113.4 16.1
2003-02-26 08:44:53 51°18.47 2°51.02 213.4 0.2 108.4 16.1
2003-02-26 08:44:59 51°18.47 2°51.021 213.2 0.2 99 16.1
2003-02-26 08:45:04 51°18.47 2°51.021 212.8 0.2 93.4 16.1
2003-02-26 08:45:09 51°18.471 2°51.022 212.6 0.2 91.1 16.1
2003-02-26 08:45:13 51°18.47 2°51.022 212.3 0.2 93.2 16.1
2003-02-26 08:45:19 51°18.471 2°51.023 212 0.2 86.3 16.1
2003-02-26 08:45:24 51°18.471 2°51.023 211.9 0.2 86.3 16.1
2003-02-26 08:45:28 51°18.471 2°51.024 211.6 0.3 87.4 16.1
2003-02-26 08:45:33 51°18.471 2°51.024 211.3 0.3 82.5 16.1
2003-02-26 08:45:39 51°18.47 2°51.025 211 0.3 84 16.1
2003-02-26 08:45:44 51°18.47 2°51.026 210.7 0.3 86.2 16
2003-02-26 08:45:49 51°18.471 2°51.027 210.3 0.3 83.4 16
2003-02-26 08:45:53 51°18.471 2°51.027 210.1 0.3 83.4 16
2003-02-26 08:45:58 51°18.471 2°51.028 209.7 0.3 80 16.1
2003-02-26 08:46:04 51°18.471 2°51.029 209.6 0.3 76.8 16.1
2003-02-26 08:46:09 51°18.471 2°51.029 209.2 0.3 76.9 16
2003-02-26 08:46:13 51°18.471 2°51.03 209 0.3 73.9 16.1
2003-02-26 08:46:19 51°18.471 2°51.031 208.6 0.4 75.7 16
2003-02-26 08:46:23 51°18.471 2°51.032 208.4 0.4 74.6 16
2003-02-26 08:46:29 51°18.471 2°51.033 208.1 0.4 74.2 16
2003-02-26 08:46:33 51°18.471 2°51.033 207.8 0.4 72.3 16.1
2003-02-26 08:46:39 51°18.472 2°51.034 207.6 0.4 73.7 16.1
2003-02-26 08:46:44 51°18.472 2°51.035 207.4 0.4 73.7 16.1
2003-02-26 08:46:49 51°18.472 2°51.036 207.1 0.4 74.5 16.1
2003-02-26 08:46:53 51°18.472 2°51.036 206.9 0.4 72.5 16.1
2003-02-26 08:46:59 51°18.473 2°51.037 206.7 0.4 74.7 16.1
2003-02-26 08:47:04 51°18.473 2°51.038 206.3 0.4 69.9 16
2003-02-26 08:47:08 51°18.473 2°51.039 206.1 0.4 70.5 16
2003-02-26 08:47:13 51°18.473 2°51.04 205.8 0.4 69.6 16
2003-02-26 08:47:19 51°18.473 2°51.041 205.5 0.4 72.2 16
2003-02-26 08:47:24 51°18.474 2°51.042 205.4 0.4 70.8 16
2003-02-26 08:47:29 51°18.474 2°51.043 205.3 0.4 68.8 16.1
2003-02-26 08:47:33 51°18.474 2°51.044 205.1 0.5 67.7 16.1
2003-02-26 08:47:39 51°18.474 2°51.045 204.8 0.5 66.9 16
2003-02-26 08:47:44 51°18.475 2°51.046 204.6 0.5 66.4 16.1
2003-02-26 08:47:49 51°18.475 2°51.047 204.5 0.5 63.3 16.1
2003-02-26 08:47:53 51°18.475 2°51.048 204.3 0.5 66.4 16
2003-02-26 08:47:58 51°18.475 2°51.049 204.2 0.5 66.4 16
2003-02-26 08:48:04 51°18.475 2°51.05 203.9 0.5 67.9 16
2003-02-26 08:48:09 51°18.476 2°51.051 203.8 0.5 65.8 16
2003-02-26 08:48:13 51°18.476 2°51.052 203.6 0.5 64.5 16
2003-02-26 08:48:19 51°18.476 2°51.053 203.2 0.5 64 16
2003-02-26 08:48:23 51°18.477 2°51.054 203.1 0.5 65.5 16
2003-02-26 08:48:28 51°18.477 2°51.055 202.7 0.5 63.3 16
2003-02-26 08:48:33 51°18.477 2°51.056 202.5 0.6 64.4 16
2003-02-26 08:48:39 51°18.477 2°51.057 202.3 0.5 66 16
2003-02-26 08:48:43 51°18.478 2°51.058 202.1 0.5 66.3 16.1
2003-02-26 08:48:48 51°18.478 2°51.06 201.9 0.6 64.8 16.1
2003-02-26 08:48:53 51°18.479 2°51.061 201.7 0.6 64.4 16
2003-02-26 08:48:58 51°18.479 2°51.062 201.5 0.6 64.3 16
2003-02-26 08:49:04 51°18.479 2°51.064 201.3 0.6 65.8 16
2003-02-26 08:49:08 51°18.48 2°51.064 201.1 0.6 64.3 16
2003-02-26 08:49:13 51°18.48 2°51.066 201 0.6 65 16
2003-02-26 08:49:19 51°18.48 2°51.067 200.8 0.6 66.6 16
2003-02-26 08:49:24 51°18.481 2°51.068 200.6 0.6 66.9 16
2003-02-26 08:49:29 51°18.481 2°51.069 200.3 0.6 65.2 16.1
2003-02-26 08:49:33 51°18.481 2°51.071 200.2 0.6 64.7 16.1
2003-02-26 08:49:39 51°18.482 2°51.072 200 0.6 67.7 16.1
2003-02-26 08:49:44 51°18.482 2°51.073 199.8 0.6 66.7 16.1
2003-02-26 08:49:49 51°18.483 2°51.074 199.6 0.6 64.6 16
2003-02-26 08:49:53 51°18.483 2°51.075 199.5 0.6 63.9 16
2003-02-26 08:49:59 51°18.483 2°51.076 199.5 0.6 64.1 16.1
2003-02-26 08:50:03 51°18.483 2°51.077 199.4 0.6 64.5 16.1
2003-02-26 08:50:09 51°18.484 2°51.079 199.3 0.6 61.7 16.1
2003-02-26 08:50:13 51°18.484 2°51.08 199.1 0.6 61.8 16.1
2003-02-26 08:50:19 51°18.485 2°51.081 199.1 0.6 62.3 16.1
2003-02-26 08:50:23 51°18.485 2°51.082 199 0.6 65.8 16
2003-02-26 08:50:29 51°18.485 2°51.083 198.8 0.6 67.8 16
2003-02-26 08:50:33 51°18.486 2°51.084 198.8 0.6 66.3 16
2003-02-26 08:50:38 51°18.486 2°51.086 198.7 0.6 63.4 16
2003-02-26 08:50:43 51°18.486 2°51.087 198.5 0.6 61.3 16
2003-02-26 08:50:49 51°18.487 2°51.088 198.4 0.6 60.4 16
2003-02-26 08:50:53 51°18.488 2°51.09 198.4 0.6 60.5 16.1
2003-02-26 08:50:58 51°18.488 2°51.091 198.4 0.6 61.2 16.1
2003-02-26 08:51:04 51°18.489 2°51.092 198.3 0.6 61.5 16.1
2003-02-26 08:51:09 51°18.489 2°51.093 198.2 0.6 60.3 16
2003-02-26 08:51:13 51°18.489 2°51.094 198.1 0.6 59.9 16
2003-02-26 08:51:19 51°18.49 2°51.096 198 0.6 60.1 16
2003-02-26 08:51:23 51°18.49 2°51.096 198 0.6 61.6 16.1
2003-02-26 08:51:29 51°18.49 2°51.098 197.7 0.6 62.9 16.1
2003-02-26 08:51:33 51°18.491 2°51.099 197.6 0.6 60.6 16.1
2003-02-26 08:51:39 51°18.491 2°51.101 197.4 0.6 61 16.1
2003-02-26 08:51:44 51°18.492 2°51.102 197.3 0.6 59.5 16.1
2003-02-26 08:51:49 51°18.492 2°51.103 197 0.7 58.7 16.1
2003-02-26 08:51:53 51°18.493 2°51.104 196.8 0.7 58.7 16.1
2003-02-26 08:51:59 51°18.493 2°51.106 196.6 0.7 61 16.1
2003-02-26 08:52:04 51°18.493 2°51.107 196.2 0.6 61.1 16
2003-02-26 08:52:09 51°18.493 2°51.108 195.5 0.5 89 16
2003-02-26 08:52:13 51°18.493 2°51.109 194.6 0.6 121.3 16
2003-02-26 08:52:19 51°18.491 2°51.11 192.9 0.8 142.7 16
2003-02-26 08:52:24 51°18.489 2°51.111 190.3 1.3 157.5 16.1
2003-02-26 08:52:29 51°18.486 2°51.113 186.4 1.7 160.4 16
2003-02-26 08:52:33 51°18.484 2°51.114 182.6 1.8 160.6 16
2003-02-26 08:52:39 51°18.48 2°51.117 179.4 2.3 158.6 16
2003-02-26 08:52:44 51°18.476 2°51.12 175.4 2.8 155.6 16
2003-02-26 08:52:49 51°18.471 2°51.125 170.5 3.3 151.6 16
2003-02-26 08:52:53 51°18.468 2°51.128 167.3 3.3 151.6 15.9
2003-02-26 08:52:59 51°18.462 2°51.135 163.2 3.8 146.9 15.9
2003-02-26 08:53:03 51°18.459 2°51.14 158.9 4.3 141.5 15.9
2003-02-26 08:53:08 51°18.454 2°51.147 154.7 4.5 138.6 15.8
2003-02-26 08:53:12 51°18.45 2°51.153 150.6 4.7 135.6 15.8
2003-02-26 08:53:19 51°18.444 2°51.165 146.4 4.9 132.3 15.8
2003-02-26 08:53:24 51°18.439 2°51.175 142 4.9 132.3 15.7
2003-02-26 08:53:29 51°18.436 2°51.186 137.6 5.5 123.1 15.7
2003-02-26 08:53:33 51°18.433 2°51.195 133.3 5.5 123.1 15.7
2003-02-26 08:53:39 51°18.429 2°51.211 128.5 6.1 114.5 15.7
2003-02-26 08:53:44 51°18.426 2°51.225 123.7 6.3 112 15.6
2003-02-26 08:53:48 51°18.424 2°51.238 116.8 7 105.8 15.6
2003-02-26 08:53:53 51°18.423 2°51.255 112.3 7.7 100.9 15.6
2003-02-26 08:53:59 51°18.422 2°51.278 105.5 8.3 95.5 15.5
2003-02-26 08:54:03 51°18.423 2°51.294 98.7 8.5 92.2 15.5
2003-02-26 08:54:08 51°18.425 2°51.314 90.4 9.1 84.8 15.3
2003-02-26 08:54:13 51°18.428 2°51.335 84.9 9.3 82.5 15.4
2003-02-26 08:54:18 51°18.432 2°51.357 79.8 9.8 76.5 15.4
2003-02-26 08:54:23 51°18.437 2°51.38 77.1 10.7 70.8 15.4
2003-02-26 08:54:29 51°18.444 2°51.408 75.4 11.1 69.1 15.3
2003-02-26 08:54:34 51°18.45 2°51.432 75.4 11.1 69.1 15.2
2003-02-26 08:54:38 51°18.455 2°51.452 74.8 11.9 68.7 15.3
2003-02-26 08:54:43 51°18.461 2°51.478 74.9 12.5 68.9 15.2
2003-02-26 08:54:49 51°18.468 2°51.511 75.8 12.8 69.4 15.2
2003-02-26 08:54:52 51°18.472 2°51.528 76.2 13.2 70.1 15.1
2003-02-26 08:54:59 51°18.481 2°51.569 76.5 13.6 70 15
2003-02-26 08:55:04 51°18.487 2°51.599 76.7 14.1 70.4 14.9
2003-02-26 08:55:09 51°18.494 2°51.629 76.8 14.4 70.6 14.9
2003-02-26 08:55:12 51°18.499 2°51.647 76.3 14.4 70.6 14.8
2003-02-26 08:55:19 51°18.508 2°51.69 76.2 14.4 70.6 14.7
2003-02-26 08:55:24 51°18.515 2°51.721 76.8 14.4 70.6 14.7
2003-02-26 08:55:28 51°18.52 2°51.746 76.7 14.9 70.7 14.7
2003-02-26 08:55:33 51°18.527 2°51.777 76.5 14.9 70.6 14.7
2003-02-26 08:55:39 51°18.536 2°51.815 76.5 15 70.5 14.5
2003-02-26 08:55:43 51°18.541 2°51.84 76.5 15 70.6 14.6
2003-02-26 08:55:49 51°18.549 2°51.877 76.6 15.1 70.6 14.5
2003-02-26 08:55:53 51°18.555 2°51.903 76.7 15.1 70.6 14.5
2003-02-26 08:55:59 51°18.563 2°51.94 76.7 15.1 70.6 14.4
2003-02-26 08:56:03 51°18.569 2°51.965 75.8 15.1 70 14.4
2003-02-26 08:56:09 51°18.578 2°52.003 75.3 15.1 69.5 14.2
2003-02-26 08:56:13 51°18.584 2°52.028 75 15.1 69.5 14.4
2003-02-26 08:56:19 51°18.593 2°52.065 74.8 15.1 69.1 14.2
2003-02-26 08:56:23 51°18.599 2°52.09 74.5 15.1 68.6 14.1
2003-02-26 08:56:28 51°18.606 2°52.121 74.2 15.1 68.6 14.2
2003-02-26 08:56:33 51°18.614 2°52.153 74.7 15.1 68.5 14.1
2003-02-26 08:56:39 51°18.623 2°52.191 74.8 15.1 68.8 14.1
2003-02-26 08:56:44 51°18.631 2°52.222 74.5 15.1 68.6 14.1
2003-02-26 08:56:49 51°18.639 2°52.253 74.4 15.1 68.6 14.1
2003-02-26 08:56:53 51°18.645 2°52.278 74.5 15.1 68.7 14
2003-02-26 08:56:59 51°18.654 2°52.315 74.7 15.1 68.6 14.1
2003-02-26 08:57:04 51°18.661 2°52.346 74.8 15.1 68.9 13.9
2003-02-26 08:57:08 51°18.667 2°52.371 75.3 15.1 69.2 13.9
2003-02-26 08:57:13 51°18.674 2°52.403 75 15.1 69.3 14
2003-02-26 08:57:18 51°18.682 2°52.434 74.7 15.1 68.8 13.9
2003-02-26 08:57:24 51°18.691 2°52.471 74.5 15.1 68.6 13.9
2003-02-26 08:57:29 51°18.698 2°52.502 74.7 15.1 68.9 13.8
2003-02-26 08:57:33 51°18.705 2°52.527 74.8 15 69 13.9
2003-02-26 08:57:39 51°18.713 2°52.564 74.9 15 69.2 13.8
2003-02-26 08:57:43 51°18.719 2°52.589 75.1 15 69.2 13.8
2003-02-26 08:57:48 51°18.727 2°52.62 74.7 15.1 69.1 13.8
2003-02-26 08:57:53 51°18.734 2°52.651 74.8 15.1 69 13.8
2003-02-26 08:57:58 51°18.741 2°52.682 75 15.1 69.1 13.8
2003-02-26 08:58:04 51°18.75 2°52.72 75.1 15.1 69.2 13.8
2003-02-26 08:58:08 51°18.756 2°52.745 75.1 15.1 69.2 13.9
2003-02-26 08:58:12 51°18.762 2°52.77 75.1 15.1 69.3 13.8
2003-02-26 08:58:19 51°18.772 2°52.813 75.2 15.1 69.3 13.8
2003-02-26 08:58:24 51°18.78 2°52.845 75.3 15.1 69.3 13.8
2003-02-26 08:58:29 51°18.788 2°52.876 74.9 15.1 69.3 13.6
2003-02-26 08:58:33 51°18.794 2°52.901 74.8 15.1 69.1 13.8
2003-02-26 08:58:39 51°18.803 2°52.938 74.9 15.1 69.1 13.7
2003-02-26 08:58:43 51°18.809 2°52.963 75.3 15.1 69.3 13.7
2003-02-26 08:58:48 51°18.816 2°52.995 75 15.1 69 13.7
2003-02-26 08:58:53 51°18.824 2°53.026 75 15.2 68.9 13.8
2003-02-26 08:58:58 51°18.832 2°53.057 74.9 15.2 68.8 13.7
2003-02-26 08:59:04 51°18.841 2°53.094 74.9 15.1 68.7 13.7
2003-02-26 08:59:09 51°18.848 2°53.126 75.3 15.1 68.8 13.8
2003-02-26 08:59:13 51°18.854 2°53.151 75.4 15.1 69.1 13.7
2003-02-26 08:59:19 51°18.863 2°53.188 75.2 15.1 69.1 13.8
2003-02-26 08:59:23 51°18.869 2°53.213 74.9 15.1 68.8 13.8
2003-02-26 08:59:28 51°18.876 2°53.244 75.1 15.1 68.8 13.8
2003-02-26 08:59:34 51°18.885 2°53.282 75.3 15.1 69 13.8
2003-02-26 08:59:39 51°18.892 2°53.313 75.3 15.1 69 13.8
2003-02-26 08:59:44 51°18.9 2°53.344 75 15.1 69 13.8
2003-02-26 08:59:49 51°18.907 2°53.375 74.8 15.1 68.6 13.8
2003-02-26 08:59:53 51°18.913 2°53.4 75.1 15.1 68.8 13.8
2003-02-26 08:59:58 51°18.921 2°53.432 75.2 15.1 68.8 13.8
2003-02-26 09:00:03 51°18.928 2°53.463 75 15.1 68.9 13.8
2003-02-26 09:00:09 51°18.938 2°53.5 75 15.1 68.8 13.8
2003-02-26 09:00:13 51°18.944 2°53.525 75.1 15.1 68.8 13.8
2003-02-26 09:00:18 51°18.951 2°53.556 75.1 15.1 68.8 13.8
2003-02-26 09:00:24 51°18.96 2°53.594 74.8 15.1 68.8 13.9
2003-02-26 09:00:29 51°18.968 2°53.625 74.9 15.1 68.6 13.8
2003-02-26 09:00:33 51°18.975 2°53.649 74.8 15.1 68.4 13.9
2003-02-26 09:00:39 51°18.984 2°53.686 74.8 15.1 68.3 13.9
2003-02-26 09:00:43 51°18.99 2°53.712 74.7 15.1 68.3 13.9